sensor_id;sensor_type;location;lat;lon;timestamp;pressure;altitude;pressure_sealevel;temperature;humidity
6090;BME280;3073;42.660;23.316;2023-03-04T00:00:23;94556.38;;;5.99;100.00
6090;BME280;3073;42.660;23.316;2023-03-04T00:02:50;94552.59;;;6.08;100.00
6090;BME280;3073;42.660;23.316;2023-03-04T00:05:17;94552.50;;;6.21;100.00
6090;BME280;3073;42.660;23.316;2023-03-04T00:07:44;94548.16;;;6.28;100.00
6090;BME280;3073;42.660;23.316;2023-03-04T00:10:11;94544.25;;;6.32;100.00
6090;BME280;3073;42.660;23.316;2023-03-04T00:12:37;94549.00;;;6.22;100.00
6090;BME280;3073;42.660;23.316;2023-03-04T00:15:05;94540.72;;;6.33;100.00
6090;BME280;3073;42.660;23.316;2023-03-04T00:17:33;94540.88;;;6.38;100.00
6090;BME280;3073;42.660;23.316;2023-03-04T00:20:00;94532.28;;;6.39;100.00
6090;BME280;3073;42.660;23.316;2023-03-04T00:22:27;94537.19;;;6.34;100.00
6090;BME280;3073;42.660;23.316;2023-03-04T00:24:54;94531.94;;;6.36;100.00
6090;BME280;3073;42.660;23.316;2023-03-04T00:27:21;94537.91;;;6.41;100.00
6090;BME280;3073;42.660;23.316;2023-03-04T00:29:47;94535.59;;;6.40;100.00
6090;BME280;3073;42.660;23.316;2023-03-04T00:32:14;94535.06;;;6.31;100.00
6090;BME280;3073;42.660;23.316;2023-03-04T00:34:44;94533.13;;;6.33;100.00
6090;BME280;3073;42.660;23.316;2023-03-04T00:37:10;94526.91;;;6.29;100.00
6090;BME280;3073;42.660;23.316;2023-03-04T00:39:37;94530.78;;;6.32;100.00
6090;BME280;3073;42.660;23.316;2023-03-04T00:42:04;94530.19;;;6.36;100.00
6090;BME280;3073;42.660;23.316;2023-03-04T00:44:31;94528.63;;;6.35;100.00
6090;BME280;3073;42.660;23.316;2023-03-04T00:46:58;94533.97;;;6.27;100.00
6090;BME280;3073;42.660;23.316;2023-03-04T00:49:25;94530.75;;;6.13;100.00
6090;BME280;3073;42.660;23.316;2023-03-04T00:51:53;94533.91;;;6.09;100.00
6090;BME280;3073;42.660;23.316;2023-03-04T00:54:20;94535.72;;;6.02;100.00
6090;BME280;3073;42.660;23.316;2023-03-04T00:56:47;94526.19;;;5.97;100.00
6090;BME280;3073;42.660;23.316;2023-03-04T00:59:14;94531.63;;;6.01;100.00
6090;BME280;3073;42.660;23.316;2023-03-04T01:01:41;94526.41;;;5.96;100.00
6090;BME280;3073;42.660;23.316;2023-03-04T01:04:08;94524.13;;;5.88;100.00
6090;BME280;3073;42.660;23.316;2023-03-04T01:06:35;94529.41;;;5.86;100.00
6090;BME280;3073;42.660;23.316;2023-03-04T01:09:03;94524.38;;;5.80;100.00
6090;BME280;3073;42.660;23.316;2023-03-04T01:11:30;94521.94;;;5.66;100.00
6090;BME280;3073;42.660;23.316;2023-03-04T01:13:57;94523.56;;;5.86;100.00
6090;BME280;3073;42.660;23.316;2023-03-04T01:16:24;94519.91;;;5.75;100.00
6090;BME280;3073;42.660;23.316;2023-03-04T01:18:51;94516.69;;;5.61;100.00
6090;BME280;3073;42.660;23.316;2023-03-04T01:21:18;94512.59;;;5.67;100.00
6090;BME280;3073;42.660;23.316;2023-03-04T01:23:44;94521.28;;;5.71;100.00
6090;BME280;3073;42.660;23.316;2023-03-04T01:26:13;94518.06;;;5.57;100.00
6090;BME280;3073;42.660;23.316;2023-03-04T01:28:39;94508.28;;;5.67;100.00
6090;BME280;3073;42.660;23.316;2023-03-04T01:31:06;94499.88;;;5.74;100.00
6090;BME280;3073;42.660;23.316;2023-03-04T01:33:33;94507.63;;;5.79;100.00
6090;BME280;3073;42.660;23.316;2023-03-04T01:36:00;94505.66;;;5.81;100.00
6090;BME280;3073;42.660;23.316;2023-03-04T01:38:27;94495.16;;;5.77;100.00
6090;BME280;3073;42.660;23.316;2023-03-04T01:40:54;94491.38;;;5.93;100.00
6090;BME280;3073;42.660;23.316;2023-03-04T01:43:24;94495.56;;;5.74;100.00
6090;BME280;3073;42.660;23.316;2023-03-04T01:45:54;94491.19;;;5.63;100.00
6090;BME280;3073;42.660;23.316;2023-03-04T01:48:24;94490.66;;;5.86;100.00
6090;BME280;3073;42.660;23.316;2023-03-04T01:50:52;94486.94;;;5.88;100.00
6090;BME280;3073;42.660;23.316;2023-03-04T01:53:22;94496.94;;;5.77;100.00
6090;BME280;3073;42.660;23.316;2023-03-04T01:55:50;94488.63;;;5.69;100.00
6090;BME280;3073;42.660;23.316;2023-03-04T01:58:17;94489.16;;;5.71;100.00
6090;BME280;3073;42.660;23.316;2023-03-04T02:00:45;94491.78;;;5.58;100.00
6090;BME280;3073;42.660;23.316;2023-03-04T02:03:15;94489.69;;;5.55;100.00
6090;BME280;3073;42.660;23.316;2023-03-04T02:05:46;94486.91;;;5.63;100.00
6090;BME280;3073;42.660;23.316;2023-03-04T02:08:14;94487.69;;;5.33;100.00
6090;BME280;3073;42.660;23.316;2023-03-04T02:10:42;94487.34;;;5.54;100.00
6090;BME280;3073;42.660;23.316;2023-03-04T02:13:09;94480.19;;;5.44;100.00
6090;BME280;3073;42.660;23.316;2023-03-04T02:15:37;94486.44;;;5.42;100.00
6090;BME280;3073;42.660;23.316;2023-03-04T02:18:13;94481.53;;;5.53;100.00
6090;BME280;3073;42.660;23.316;2023-03-04T02:20:47;94479.59;;;5.80;100.00
6090;BME280;3073;42.660;23.316;2023-03-04T02:23:20;94477.59;;;5.82;100.00
6090;BME280;3073;42.660;23.316;2023-03-04T02:26:04;94474.34;;;5.50;100.00
6090;BME280;3073;42.660;23.316;2023-03-04T02:28:32;94479.22;;;5.45;100.00
6090;BME280;3073;42.660;23.316;2023-03-04T02:30:59;94482.03;;;5.62;100.00
6090;BME280;3073;42.660;23.316;2023-03-04T02:33:26;94478.03;;;5.48;100.00
6090;BME280;3073;42.660;23.316;2023-03-04T02:35:53;94479.97;;;5.52;100.00
6090;BME280;3073;42.660;23.316;2023-03-04T02:38:20;94479.03;;;5.47;100.00
6090;BME280;3073;42.660;23.316;2023-03-04T02:40:48;94478.31;;;5.64;100.00
6090;BME280;3073;42.660;23.316;2023-03-04T02:43:18;94474.56;;;5.74;100.00
6090;BME280;3073;42.660;23.316;2023-03-04T02:45:46;94468.38;;;5.38;100.00
6090;BME280;3073;42.660;23.316;2023-03-04T02:48:16;94469.53;;;5.42;100.00
6090;BME280;3073;42.660;23.316;2023-03-04T02:50:47;94460.66;;;5.58;100.00
6090;BME280;3073;42.660;23.316;2023-03-04T02:53:14;94456.50;;;5.39;100.00
6090;BME280;3073;42.660;23.316;2023-03-04T02:55:41;94466.78;;;5.44;100.00
6090;BME280;3073;42.660;23.316;2023-03-04T02:58:09;94461.75;;;5.37;100.00
6090;BME280;3073;42.660;23.316;2023-03-04T03:00:38;94458.78;;;5.15;100.00
6090;BME280;3073;42.660;23.316;2023-03-04T03:03:06;94463.47;;;5.12;100.00
6090;BME280;3073;42.660;23.316;2023-03-04T03:05:33;94462.28;;;5.14;100.00
6090;BME280;3073;42.660;23.316;2023-03-04T03:08:01;94456.59;;;5.26;100.00
6090;BME280;3073;42.660;23.316;2023-03-04T03:10:27;94470.00;;;5.26;100.00
6090;BME280;3073;42.660;23.316;2023-03-04T03:12:54;94462.47;;;5.19;100.00
6090;BME280;3073;42.660;23.316;2023-03-04T03:15:21;94466.22;;;5.04;100.00
6090;BME280;3073;42.660;23.316;2023-03-04T03:17:50;94469.50;;;5.11;100.00
6090;BME280;3073;42.660;23.316;2023-03-04T03:20:17;94466.00;;;5.12;100.00
6090;BME280;3073;42.660;23.316;2023-03-04T03:22:44;94471.75;;;5.26;100.00
6090;BME280;3073;42.660;23.316;2023-03-04T03:25:12;94469.28;;;5.50;100.00
6090;BME280;3073;42.660;23.316;2023-03-04T03:27:39;94461.59;;;5.63;100.00
6090;BME280;3073;42.660;23.316;2023-03-04T03:30:09;94462.16;;;5.65;100.00
6090;BME280;3073;42.660;23.316;2023-03-04T03:32:36;94459.78;;;5.70;100.00
6090;BME280;3073;42.660;23.316;2023-03-04T03:35:05;94463.34;;;5.63;100.00
6090;BME280;3073;42.660;23.316;2023-03-04T03:37:31;94462.31;;;5.70;100.00
6090;BME280;3073;42.660;23.316;2023-03-04T03:39:58;94457.81;;;5.72;100.00
6090;BME280;3073;42.660;23.316;2023-03-04T03:42:25;94455.28;;;5.72;100.00
6090;BME280;3073;42.660;23.316;2023-03-04T03:44:52;94453.53;;;5.73;100.00
6090;BME280;3073;42.660;23.316;2023-03-04T03:47:20;94454.63;;;5.59;100.00
6090;BME280;3073;42.660;23.316;2023-03-04T03:49:47;94456.78;;;5.55;100.00
6090;BME280;3073;42.660;23.316;2023-03-04T03:52:15;94452.56;;;5.49;100.00
6090;BME280;3073;42.660;23.316;2023-03-04T03:54:42;94448.41;;;5.30;100.00
6090;BME280;3073;42.660;23.316;2023-03-04T03:57:09;94449.75;;;5.33;100.00
6090;BME280;3073;42.660;23.316;2023-03-04T03:59:36;94451.50;;;5.32;100.00
6090;BME280;3073;42.660;23.316;2023-03-04T04:02:02;94443.97;;;5.19;100.00
6090;BME280;3073;42.660;23.316;2023-03-04T04:04:29;94440.13;;;5.16;100.00
6090;BME280;3073;42.660;23.316;2023-03-04T04:06:56;94439.53;;;5.14;100.00
6090;BME280;3073;42.660;23.316;2023-03-04T04:09:25;94440.75;;;5.05;100.00
6090;BME280;3073;42.660;23.316;2023-03-04T04:11:51;94440.75;;;5.05;100.00
6090;BME280;3073;42.660;23.316;2023-03-04T04:14:20;94444.47;;;5.03;100.00
6090;BME280;3073;42.660;23.316;2023-03-04T04:16:47;94439.38;;;4.72;100.00
6090;BME280;3073;42.660;23.316;2023-03-04T04:19:16;94439.84;;;4.93;100.00
6090;BME280;3073;42.660;23.316;2023-03-04T04:21:43;94439.31;;;4.85;100.00
6090;BME280;3073;42.660;23.316;2023-03-04T04:24:10;94438.56;;;4.78;100.00
6090;BME280;3073;42.660;23.316;2023-03-04T04:26:39;94435.63;;;4.81;100.00
6090;BME280;3073;42.660;23.316;2023-03-04T04:29:06;94439.13;;;4.86;100.00
6090;BME280;3073;42.660;23.316;2023-03-04T04:31:33;94445.63;;;5.07;100.00
6090;BME280;3073;42.660;23.316;2023-03-04T04:34:00;94443.88;;;5.01;100.00
6090;BME280;3073;42.660;23.316;2023-03-04T04:36:27;94441.63;;;4.86;100.00
6090;BME280;3073;42.660;23.316;2023-03-04T04:38:54;94440.28;;;4.84;100.00
6090;BME280;3073;42.660;23.316;2023-03-04T04:41:24;94435.97;;;4.91;100.00
6090;BME280;3073;42.660;23.316;2023-03-04T04:43:53;94435.56;;;4.94;100.00
6090;BME280;3073;42.660;23.316;2023-03-04T04:46:20;94444.34;;;4.85;100.00
6090;BME280;3073;42.660;23.316;2023-03-04T04:48:47;94439.91;;;4.80;100.00
6090;BME280;3073;42.660;23.316;2023-03-04T04:51:14;94437.38;;;4.87;100.00
6090;BME280;3073;42.660;23.316;2023-03-04T04:53:41;94439.41;;;4.58;100.00
6090;BME280;3073;42.660;23.316;2023-03-04T04:56:11;94442.69;;;4.65;100.00
6090;BME280;3073;42.660;23.316;2023-03-04T04:58:39;94448.16;;;4.62;100.00
6090;BME280;3073;42.660;23.316;2023-03-04T05:01:08;94447.78;;;4.52;100.00
6090;BME280;3073;42.660;23.316;2023-03-04T05:03:35;94454.22;;;4.48;100.00
6090;BME280;3073;42.660;23.316;2023-03-04T05:06:04;94455.00;;;4.42;100.00
6090;BME280;3073;42.660;23.316;2023-03-04T05:08:32;94458.50;;;4.48;100.00
6090;BME280;3073;42.660;23.316;2023-03-04T05:10:59;94458.94;;;4.32;100.00
6090;BME280;3073;42.660;23.316;2023-03-04T05:13:27;94461.78;;;4.55;100.00
6090;BME280;3073;42.660;23.316;2023-03-04T05:15:55;94464.66;;;4.65;100.00
6090;BME280;3073;42.660;23.316;2023-03-04T05:18:24;94466.63;;;4.63;100.00
6090;BME280;3073;42.660;23.316;2023-03-04T05:20:52;94466.78;;;4.68;100.00
6090;BME280;3073;42.660;23.316;2023-03-04T05:23:19;94466.03;;;4.61;100.00
6090;BME280;3073;42.660;23.316;2023-03-04T05:25:47;94471.75;;;4.37;100.00
6090;BME280;3073;42.660;23.316;2023-03-04T05:28:15;94476.59;;;4.32;100.00
6090;BME280;3073;42.660;23.316;2023-03-04T05:30:44;94474.91;;;4.06;100.00
6090;BME280;3073;42.660;23.316;2023-03-04T05:33:12;94470.66;;;4.00;100.00
6090;BME280;3073;42.660;23.316;2023-03-04T05:35:41;94478.41;;;3.92;100.00
6090;BME280;3073;42.660;23.316;2023-03-04T05:38:10;94480.34;;;4.03;100.00
6090;BME280;3073;42.660;23.316;2023-03-04T05:40:38;94480.13;;;3.98;100.00
6090;BME280;3073;42.660;23.316;2023-03-04T05:43:06;94480.34;;;4.03;100.00
6090;BME280;3073;42.660;23.316;2023-03-04T05:45:33;94481.50;;;4.20;100.00
6090;BME280;3073;42.660;23.316;2023-03-04T05:48:00;94476.78;;;4.43;100.00
6090;BME280;3073;42.660;23.316;2023-03-04T05:50:27;94486.03;;;4.62;100.00
6090;BME280;3073;42.660;23.316;2023-03-04T05:52:56;94484.34;;;4.94;100.00
6090;BME280;3073;42.660;23.316;2023-03-04T05:55:23;94487.78;;;5.13;100.00
6090;BME280;3073;42.660;23.316;2023-03-04T05:57:52;94488.50;;;5.27;100.00
6090;BME280;3073;42.660;23.316;2023-03-04T06:00:19;94494.00;;;5.10;100.00
6090;BME280;3073;42.660;23.316;2023-03-04T06:02:46;94498.81;;;5.25;100.00
6090;BME280;3073;42.660;23.316;2023-03-04T06:05:14;94494.25;;;5.40;100.00
6090;BME280;3073;42.660;23.316;2023-03-04T06:07:42;94498.66;;;5.51;100.00
6090;BME280;3073;42.660;23.316;2023-03-04T06:10:12;94494.88;;;5.60;100.00
6090;BME280;3073;42.660;23.316;2023-03-04T06:12:40;94494.41;;;5.45;100.00
6090;BME280;3073;42.660;23.316;2023-03-04T06:15:07;94502.47;;;5.60;100.00
6090;BME280;3073;42.660;23.316;2023-03-04T06:17:36;94498.97;;;5.61;100.00
6090;BME280;3073;42.660;23.316;2023-03-04T06:20:04;94510.34;;;5.77;100.00
6090;BME280;3073;42.660;23.316;2023-03-04T06:22:31;94507.81;;;5.77;100.00
6090;BME280;3073;42.660;23.316;2023-03-04T06:24:59;94503.63;;;5.96;100.00
6090;BME280;3073;42.660;23.316;2023-03-04T06:27:27;94501.34;;;6.12;100.00
6090;BME280;3073;42.660;23.316;2023-03-04T06:29:54;94503.16;;;6.30;100.00
6090;BME280;3073;42.660;23.316;2023-03-04T06:32:22;94507.72;;;6.40;100.00
6090;BME280;3073;42.660;23.316;2023-03-04T06:34:48;94503.50;;;6.34;100.00
6090;BME280;3073;42.660;23.316;2023-03-04T06:37:15;94503.41;;;6.22;100.00
6090;BME280;3073;42.660;23.316;2023-03-04T06:39:43;94510.88;;;6.35;100.00
6090;BME280;3073;42.660;23.316;2023-03-04T06:42:10;94511.44;;;6.37;100.00
6090;BME280;3073;42.660;23.316;2023-03-04T06:44:39;94518.72;;;6.09;100.00
6090;BME280;3073;42.660;23.316;2023-03-04T06:47:06;94517.16;;;6.08;100.00
6090;BME280;3073;42.660;23.316;2023-03-04T06:49:32;94521.66;;;6.06;100.00
6090;BME280;3073;42.660;23.316;2023-03-04T06:51:59;94521.31;;;6.27;100.00
6090;BME280;3073;42.660;23.316;2023-03-04T06:54:27;94516.50;;;6.37;100.00
6090;BME280;3073;42.660;23.316;2023-03-04T06:56:53;94521.19;;;6.40;100.00
6090;BME280;3073;42.660;23.316;2023-03-04T06:59:20;94516.53;;;6.55;100.00
6090;BME280;3073;42.660;23.316;2023-03-04T07:01:48;94520.28;;;6.71;100.00
6090;BME280;3073;42.660;23.316;2023-03-04T07:04:24;94521.03;;;6.71;100.00
6090;BME280;3073;42.660;23.316;2023-03-04T07:06:54;94525.75;;;6.50;100.00
6090;BME280;3073;42.660;23.316;2023-03-04T07:09:21;94522.16;;;6.39;100.00
6090;BME280;3073;42.660;23.316;2023-03-04T07:11:48;94528.06;;;6.33;100.00
6090;BME280;3073;42.660;23.316;2023-03-04T07:14:15;94530.41;;;6.53;100.00
6090;BME280;3073;42.660;23.316;2023-03-04T07:16:42;94528.91;;;6.45;100.00
6090;BME280;3073;42.660;23.316;2023-03-04T07:19:14;94532.53;;;6.31;100.00
6090;BME280;3073;42.660;23.316;2023-03-04T07:21:41;94526.06;;;6.17;100.00
6090;BME280;3073;42.660;23.316;2023-03-04T07:24:08;94537.63;;;6.06;100.00
6090;BME280;3073;42.660;23.316;2023-03-04T07:26:35;94534.97;;;5.95;100.00
6090;BME280;3073;42.660;23.316;2023-03-04T07:29:03;94540.13;;;6.13;100.00
6090;BME280;3073;42.660;23.316;2023-03-04T07:31:31;94534.53;;;6.29;100.00
6090;BME280;3073;42.660;23.316;2023-03-04T07:34:00;94537.50;;;5.95;100.00
6090;BME280;3073;42.660;23.316;2023-03-04T07:36:30;94541.00;;;6.00;100.00
6090;BME280;3073;42.660;23.316;2023-03-04T07:38:57;94534.47;;;6.11;100.00
6090;BME280;3073;42.660;23.316;2023-03-04T07:41:26;94535.06;;;6.13;100.00
6090;BME280;3073;42.660;23.316;2023-03-04T07:43:55;94538.34;;;6.38;100.00
6090;BME280;3073;42.660;23.316;2023-03-04T07:46:22;94530.84;;;6.68;100.00
6090;BME280;3073;42.660;23.316;2023-03-04T07:48:49;94533.16;;;6.88;100.00
6090;BME280;3073;42.660;23.316;2023-03-04T07:51:18;94529.22;;;7.10;100.00
6090;BME280;3073;42.660;23.316;2023-03-04T07:53:49;94524.00;;;7.05;100.00
6090;BME280;3073;42.660;23.316;2023-03-04T07:56:18;94522.94;;;7.12;100.00
6090;BME280;3073;42.660;23.316;2023-03-04T07:58:45;94522.59;;;6.91;100.00
6090;BME280;3073;42.660;23.316;2023-03-04T08:01:13;94528.22;;;6.74;100.00
6090;BME280;3073;42.660;23.316;2023-03-04T08:03:41;94529.38;;;6.60;100.00
6090;BME280;3073;42.660;23.316;2023-03-04T08:06:09;94519.22;;;6.60;100.00
6090;BME280;3073;42.660;23.316;2023-03-04T08:08:37;94521.84;;;6.90;100.00
6090;BME280;3073;42.660;23.316;2023-03-04T08:11:07;94526.88;;;7.08;100.00
6090;BME280;3073;42.660;23.316;2023-03-04T08:13:35;94525.75;;;7.22;100.00
6090;BME280;3073;42.660;23.316;2023-03-04T08:16:02;94523.66;;;7.31;100.00
6090;BME280;3073;42.660;23.316;2023-03-04T08:18:29;94528.09;;;7.36;100.00
6090;BME280;3073;42.660;23.316;2023-03-04T08:20:56;94524.06;;;7.16;100.00
6090;BME280;3073;42.660;23.316;2023-03-04T08:23:23;94525.41;;;7.01;100.00
6090;BME280;3073;42.660;23.316;2023-03-04T08:25:50;94513.75;;;7.11;100.00
6090;BME280;3073;42.660;23.316;2023-03-04T08:28:18;94514.81;;;7.52;100.00
6090;BME280;3073;42.660;23.316;2023-03-04T08:30:51;94524.09;;;7.58;100.00
6090;BME280;3073;42.660;23.316;2023-03-04T08:33:18;94514.41;;;7.66;100.00
6090;BME280;3073;42.660;23.316;2023-03-04T08:35:45;94520.13;;;7.50;100.00
6090;BME280;3073;42.660;23.316;2023-03-04T08:38:12;94518.81;;;7.59;100.00
6090;BME280;3073;42.660;23.316;2023-03-04T08:40:39;94522.34;;;7.58;100.00
6090;BME280;3073;42.660;23.316;2023-03-04T08:43:06;94518.03;;;8.12;100.00
6090;BME280;3073;42.660;23.316;2023-03-04T08:45:34;94514.56;;;7.95;100.00
6090;BME280;3073;42.660;23.316;2023-03-04T08:48:01;94512.53;;;8.26;100.00
6090;BME280;3073;42.660;23.316;2023-03-04T08:50:28;94515.06;;;8.38;100.00
6090;BME280;3073;42.660;23.316;2023-03-04T08:52:55;94505.78;;;8.55;100.00
6090;BME280;3073;42.660;23.316;2023-03-04T08:55:22;94509.28;;;8.89;100.00
6090;BME280;3073;42.660;23.316;2023-03-04T08:57:48;94509.94;;;8.96;100.00
6090;BME280;3073;42.660;23.316;2023-03-04T09:00:16;94514.63;;;9.16;100.00
6090;BME280;3073;42.660;23.316;2023-03-04T09:02:44;94509.84;;;9.48;100.00
6090;BME280;3073;42.660;23.316;2023-03-04T09:05:11;94506.72;;;9.57;100.00
6090;BME280;3073;42.660;23.316;2023-03-04T09:07:38;94507.25;;;9.59;100.00
6090;BME280;3073;42.660;23.316;2023-03-04T09:10:06;94513.28;;;9.53;100.00
6090;BME280;3073;42.660;23.316;2023-03-04T09:12:33;94510.75;;;9.42;100.00
6090;BME280;3073;42.660;23.316;2023-03-04T09:14:59;94509.13;;;9.64;100.00
6090;BME280;3073;42.660;23.316;2023-03-04T09:17:27;94502.63;;;9.56;100.00
6090;BME280;3073;42.660;23.316;2023-03-04T09:19:55;94499.44;;;9.21;100.00
6090;BME280;3073;42.660;23.316;2023-03-04T09:22:22;94502.34;;;9.41;100.00
6090;BME280;3073;42.660;23.316;2023-03-04T09:24:49;94491.63;;;9.39;100.00
6090;BME280;3073;42.660;23.316;2023-03-04T09:27:16;94483.97;;;9.11;100.00
6090;BME280;3073;42.660;23.316;2023-03-04T09:29:43;94488.81;;;9.24;100.00
6090;BME280;3073;42.660;23.316;2023-03-04T09:32:10;94491.84;;;8.69;100.00
6090;BME280;3073;42.660;23.316;2023-03-04T09:34:37;94489.47;;;8.91;100.00
6090;BME280;3073;42.660;23.316;2023-03-04T09:37:05;94480.44;;;8.72;100.00
6090;BME280;3073;42.660;23.316;2023-03-04T09:39:32;94479.81;;;9.05;100.00
6090;BME280;3073;42.660;23.316;2023-03-04T09:41:59;94480.00;;;8.75;100.00
6090;BME280;3073;42.660;23.316;2023-03-04T09:44:28;94486.53;;;8.71;100.00
6090;BME280;3073;42.660;23.316;2023-03-04T09:46:58;94481.50;;;8.99;100.00
6090;BME280;3073;42.660;23.316;2023-03-04T09:49:26;94478.69;;;9.41;100.00
6090;BME280;3073;42.660;23.316;2023-03-04T09:51:56;94475.94;;;9.59;100.00
6090;BME280;3073;42.660;23.316;2023-03-04T09:54:55;94473.13;;;9.44;100.00
6090;BME280;3073;42.660;23.316;2023-03-04T09:57:33;94476.59;;;9.09;100.00
6090;BME280;3073;42.660;23.316;2023-03-04T10:00:11;94471.41;;;8.53;100.00
6090;BME280;3073;42.660;23.316;2023-03-04T10:03:03;94465.25;;;8.89;100.00
6090;BME280;3073;42.660;23.316;2023-03-04T10:05:32;94465.53;;;9.32;100.00
6090;BME280;3073;42.660;23.316;2023-03-04T10:08:08;94463.50;;;9.62;100.00
6090;BME280;3073;42.660;23.316;2023-03-04T10:10:43;94452.38;;;10.02;100.00
6090;BME280;3073;42.660;23.316;2023-03-04T10:13:14;94455.19;;;10.55;100.00
6090;BME280;3073;42.660;23.316;2023-03-04T10:15:45;94452.22;;;10.85;100.00
6090;BME280;3073;42.660;23.316;2023-03-04T10:18:19;94449.97;;;11.10;100.00
6090;BME280;3073;42.660;23.316;2023-03-04T10:20:52;94451.69;;;10.83;100.00
6090;BME280;3073;42.660;23.316;2023-03-04T10:23:22;94441.44;;;10.56;100.00
6090;BME280;3073;42.660;23.316;2023-03-04T10:25:52;94451.41;;;10.79;100.00
6090;BME280;3073;42.660;23.316;2023-03-04T10:28:23;94433.72;;;10.73;100.00
6090;BME280;3073;42.660;23.316;2023-03-04T10:30:56;94436.72;;;10.10;100.00
6090;BME280;3073;42.660;23.316;2023-03-04T10:33:26;94425.75;;;9.76;100.00
6090;BME280;3073;42.660;23.316;2023-03-04T10:36:00;94426.59;;;9.98;100.00
6090;BME280;3073;42.660;23.316;2023-03-04T10:38:29;94421.41;;;10.10;100.00
6090;BME280;3073;42.660;23.316;2023-03-04T10:40:59;94420.72;;;10.14;100.00
6090;BME280;3073;42.660;23.316;2023-03-04T10:43:27;94419.22;;;10.35;100.00
6090;BME280;3073;42.660;23.316;2023-03-04T10:45:56;94409.63;;;10.20;100.00
6090;BME280;3073;42.660;23.316;2023-03-04T10:48:25;94411.22;;;10.10;100.00
6090;BME280;3073;42.660;23.316;2023-03-04T10:50:53;94402.66;;;10.16;100.00
6090;BME280;3073;42.660;23.316;2023-03-04T10:53:32;94400.91;;;9.66;100.00
6090;BME280;3073;42.660;23.316;2023-03-04T10:58:49;94400.44;;;9.69;100.00
6090;BME280;3073;42.660;23.316;2023-03-04T11:01:16;94396.41;;;9.90;100.00
6090;BME280;3073;42.660;23.316;2023-03-04T11:03:49;94390.81;;;10.10;100.00
6090;BME280;3073;42.660;23.316;2023-03-04T11:06:19;94387.06;;;9.96;100.00
6090;BME280;3073;42.660;23.316;2023-03-04T11:08:54;94378.91;;;9.77;100.00
6090;BME280;3073;42.660;23.316;2023-03-04T11:11:26;94378.41;;;9.97;100.00
6090;BME280;3073;42.660;23.316;2023-03-04T11:13:57;94379.97;;;9.64;100.00
6090;BME280;3073;42.660;23.316;2023-03-04T11:16:28;94365.78;;;9.68;100.00
6090;BME280;3073;42.660;23.316;2023-03-04T11:18:59;94366.09;;;9.55;100.00
6090;BME280;3073;42.660;23.316;2023-03-04T11:21:30;94360.22;;;9.55;100.00
6090;BME280;3073;42.660;23.316;2023-03-04T11:24:01;94359.31;;;9.44;100.00
6090;BME280;3073;42.660;23.316;2023-03-04T11:26:35;94353.78;;;9.47;100.00
6090;BME280;3073;42.660;23.316;2023-03-04T11:29:12;94345.03;;;9.26;100.00
6090;BME280;3073;42.660;23.316;2023-03-04T11:31:44;94352.38;;;9.23;100.00
6090;BME280;3073;42.660;23.316;2023-03-04T11:34:16;94342.56;;;9.15;100.00
6090;BME280;3073;42.660;23.316;2023-03-04T11:36:52;94344.63;;;9.18;100.00
6090;BME280;3073;42.660;23.316;2023-03-04T11:39:28;94340.41;;;9.07;100.00
6090;BME280;3073;42.660;23.316;2023-03-04T11:42:02;94340.31;;;9.02;100.00
6090;BME280;3073;42.660;23.316;2023-03-04T11:44:32;94335.06;;;8.92;100.00
6090;BME280;3073;42.660;23.316;2023-03-04T11:47:17;94332.53;;;9.08;100.00
6090;BME280;3073;42.660;23.316;2023-03-04T11:50:13;94329.66;;;9.05;100.00
6090;BME280;3073;42.660;23.316;2023-03-04T11:52:53;94333.06;;;8.94;100.00
6090;BME280;3073;42.660;23.316;2023-03-04T11:55:30;94330.44;;;9.05;100.00
6090;BME280;3073;42.660;23.316;2023-03-04T11:58:14;94328.00;;;8.65;100.00
6090;BME280;3073;42.660;23.316;2023-03-04T12:00:48;94322.22;;;8.70;100.00
6090;BME280;3073;42.660;23.316;2023-03-04T12:03:44;94316.00;;;8.94;100.00
6090;BME280;3073;42.660;23.316;2023-03-04T12:06:24;94319.75;;;9.20;100.00
6090;BME280;3073;42.660;23.316;2023-03-04T12:09:02;94309.09;;;9.40;100.00
6090;BME280;3073;42.660;23.316;2023-03-04T12:11:40;94309.09;;;9.78;100.00
6090;BME280;3073;42.660;23.316;2023-03-04T12:14:26;94305.34;;;9.80;100.00
6090;BME280;3073;42.660;23.316;2023-03-04T12:22:43;94303.34;;;9.66;100.00
6090;BME280;3073;42.660;23.316;2023-03-04T12:25:36;94300.88;;;9.93;100.00
6090;BME280;3073;42.660;23.316;2023-03-04T12:28:25;94295.53;;;9.94;100.00
6090;BME280;3073;42.660;23.316;2023-03-04T12:31:11;94294.91;;;10.04;100.00
6090;BME280;3073;42.660;23.316;2023-03-04T12:33:48;94290.88;;;10.08;100.00
6090;BME280;3073;42.660;23.316;2023-03-04T12:36:26;94294.25;;;10.57;100.00
6090;BME280;3073;42.660;23.316;2023-03-04T12:39:09;94282.81;;;10.64;100.00
6090;BME280;3073;42.660;23.316;2023-03-04T12:41:48;94280.94;;;10.81;100.00
6090;BME280;3073;42.660;23.316;2023-03-04T12:44:18;94278.19;;;11.20;100.00
6090;BME280;3073;42.660;23.316;2023-03-04T12:47:11;94291.75;;;11.20;100.00
6090;BME280;3073;42.660;23.316;2023-03-04T12:49:54;94279.47;;;11.17;100.00
6090;BME280;3073;42.660;23.316;2023-03-04T12:52:33;94276.84;;;11.07;100.00
6090;BME280;3073;42.660;23.316;2023-03-04T12:55:10;94274.94;;;10.98;100.00
6090;BME280;3073;42.660;23.316;2023-03-04T12:57:38;94257.00;;;11.19;100.00
6090;BME280;3073;42.660;23.316;2023-03-04T13:00:15;94259.72;;;11.08;100.00
6090;BME280;3073;42.660;23.316;2023-03-04T13:03:09;94258.06;;;11.28;100.00
6090;BME280;3073;42.660;23.316;2023-03-04T13:06:01;94254.81;;;11.38;100.00
6090;BME280;3073;42.660;23.316;2023-03-04T13:08:38;94253.41;;;10.83;100.00
6090;BME280;3073;42.660;23.316;2023-03-04T13:14:26;94246.84;;;10.93;100.00
6090;BME280;3073;42.660;23.316;2023-03-04T13:16:55;94242.44;;;10.83;100.00
6090;BME280;3073;42.660;23.316;2023-03-04T13:19:56;94237.63;;;10.87;100.00
6090;BME280;3073;42.660;23.316;2023-03-04T13:22:43;94240.75;;;10.99;100.00
6090;BME280;3073;42.660;23.316;2023-03-04T13:25:29;94237.66;;;10.33;100.00
6090;BME280;3073;42.660;23.316;2023-03-04T13:28:12;94234.34;;;10.38;100.00
6090;BME280;3073;42.660;23.316;2023-03-04T13:36:54;94229.25;;;10.64;100.00
6090;BME280;3073;42.660;23.316;2023-03-04T13:39:24;94230.47;;;10.57;100.00
6090;BME280;3073;42.660;23.316;2023-03-04T13:41:53;94231.78;;;10.59;100.00